Atlantis Armona — 9HA2518 — position and weather

sailwx.info

Track history (hours):
 
Tides and Currents Weather Stations Pressure Air Temp Water Temp Dewpoint Dewpoint Depression Visibility Wind Speed Wind Dir Waves Ship Positions

Atlantis Armona

Last reported at 2018-Jan-21 22:41 UTC. Time now 2018-Jan-22 04:37 UTC.
Position N 43°26' E 008°47'.

Length 92 m; draft 6.3 m.

Type: Tanker. MMSI: 248793000.

Date/timePositionNaut miles runAvg speedWind from/ knotsBaromVisibWave heightAir tempDewpointWater temp
2018-Jan-21 22:41N 43°26' E 008°47'2 9.3
2018-Jan-21 22:29N 43°27' E 008°49'5 9.7
2018-Jan-21 22:00N 43°27' E 008°56'5 9.7
2018-Jan-21 21:30N 43°28' E 009°02'5 9.6
2018-Jan-21 21:00N 43°29' E 009°09'5 9.7
2018-Jan-21 20:30N 43°30' E 009°15'5 9.6
2018-Jan-21 19:57N 43°30' E 009°23'4 9.6
2018-Jan-21 19:30N 43°31' E 009°28'510.0
2018-Jan-21 19:00N 43°31' E 009°35'5 9.7
2018-Jan-21 18:30N 43°31' E 009°42'5 9.7
2018-Jan-21 18:00N 43°31' E 009°49'4 8.8
2018-Jan-21 17:30N 43°31' E 009°55'4 8.6
2018-Jan-21 17:00N 43°31' E 010°00'4 8.9
2018-Jan-21 16:30N 43°31' E 010°07'5 9.4
2018-Jan-21 16:00N 43°31' E 010°13'4 8.0
2018-Jan-21 15:30N 43°34' E 010°18'1 2.4
2018-Jan-21 14:58N 43°34' E 010°19'0 0.0
2018-Jan-21 14:28N 43°34' E 010°19'0 0.0
2018-Jan-21 13:58N 43°34' E 010°19'0 0.0
2018-Jan-21 13:28N 43°34' E 010°19'0 0.0
2018-Jan-21 12:58N 43°34' E 010°19'0 0.0
2018-Jan-21 12:28N 43°34' E 010°19'0 0.0
2018-Jan-21 11:49N 43°34' E 010°19'0 0.0
2018-Jan-21 11:28N 43°34' E 010°19'0 0.0
2018-Jan-21 10:58N 43°34' E 010°19'0 0.0
2018-Jan-21 10:22N 43°34' E 010°19'0 0.0
2018-Jan-21 09:49N 43°34' E 010°19'0 0.0
2018-Jan-21 09:28N 43°34' E 010°19'0 0.0
2018-Jan-21 08:58N 43°34' E 010°19'0 0.0
2018-Jan-21 08:28N 43°34' E 010°19'0 0.0
2018-Jan-21 07:58N 43°34' E 010°19'0 0.0
2018-Jan-21 07:25N 43°34' E 010°19'0 0.0
2018-Jan-21 06:55N 43°34' E 010°19'0 0.0
2018-Jan-21 06:28N 43°34' E 010°19'0 0.0
2018-Jan-21 05:58N 43°34' E 010°19'0 0.0
2018-Jan-21 05:28N 43°34' E 010°19'0 0.0
2018-Jan-21 04:58N 43°34' E 010°19'0 0.0
2018-Jan-21 04:28N 43°34' E 010°19'0 0.0
2018-Jan-21 03:58N 43°34' E 010°19'0 0.0
2018-Jan-21 03:28N 43°34' E 010°19'0 0.0
2018-Jan-21 02:58N 43°34' E 010°19'0 0.0
2018-Jan-21 02:28N 43°34' E 010°19'0 0.0
2018-Jan-21 01:58N 43°34' E 010°19'0 0.0
2018-Jan-21 01:28N 43°34' E 010°19'0 0.0
2018-Jan-21 00:58N 43°34' E 010°19'0 0.0
2018-Jan-21 00:28N 43°34' E 010°19'0 0.0
2018-Jan-20 23:58N 43°34' E 010°19'0 0.0
2018-Jan-20 23:28N 43°34' E 010°19'0 0.0
2018-Jan-20 22:46N 43°34' E 010°19'0 0.0
2018-Jan-20 22:28N 43°34' E 010°19'0 0.0
2018-Jan-20 21:55N 43°34' E 010°19'0 0.0
2018-Jan-20 21:25N 43°34' E 010°19'0 0.0
2018-Jan-20 20:58N 43°34' E 010°19'0 0.0
2018-Jan-20 20:28N 43°34' E 010°19'0 0.0
2018-Jan-20 19:58N 43°34' E 010°19'0 0.0
2018-Jan-20 19:28N 43°34' E 010°19'0 0.0
2018-Jan-20 18:58N 43°34' E 010°19'0 0.0
2018-Jan-20 18:25N 43°34' E 010°19'0 0.0
2018-Jan-20 17:58N 43°34' E 010°19'0 0.0
2018-Jan-20 17:25N 43°34' E 010°19'0 0.0
2018-Jan-20 16:58N 43°34' E 010°19'0 0.0
2018-Jan-20 16:28N 43°34' E 010°19'0 0.0
2018-Jan-20 15:58N 43°34' E 010°19'0 0.0
2018-Jan-20 15:28N 43°34' E 010°19'0 0.0
2018-Jan-20 14:58N 43°34' E 010°19'0 0.0
2018-Jan-20 14:28N 43°34' E 010°19'0 0.0
2018-Jan-20 13:58N 43°34' E 010°19'0 0.0
2018-Jan-20 13:28N 43°34' E 010°19'0 0.0
2018-Jan-20 12:58N 43°34' E 010°19'0 0.0
2018-Jan-20 12:28N 43°34' E 010°19'0 0.0
2018-Jan-20 11:46N 43°34' E 010°19'0 0.0
2018-Jan-20 11:28N 43°34' E 010°19'0 0.0
2018-Jan-20 10:55N 43°34' E 010°19'0 0.0
2018-Jan-20 10:28N 43°34' E 010°19'0 0.0
2018-Jan-20 09:58N 43°34' E 010°19'0 0.0
2018-Jan-20 09:28N 43°34' E 010°19'0 0.0
2018-Jan-20 08:58N 43°34' E 010°19'0 0.0
2018-Jan-20 08:28N 43°34' E 010°19'0 0.0
2018-Jan-20 07:58N 43°34' E 010°19'0 0.0
2018-Jan-20 07:28N 43°34' E 010°19'0 0.0
2018-Jan-20 06:58N 43°34' E 010°19'0 0.0
2018-Jan-20 06:28N 43°34' E 010°19'0 0.0
2018-Jan-20 05:58N 43°34' E 010°19'0 0.0
2018-Jan-20 05:28N 43°34' E 010°19'0 0.0
2018-Jan-20 04:58N 43°34' E 010°19'0 0.0
2018-Jan-20 04:28N 43°34' E 010°19'0 0.0
2018-Jan-20 03:58N 43°34' E 010°19'0 0.0
2018-Jan-20 03:28N 43°34' E 010°19'0 0.0
2018-Jan-20 02:58N 43°34' E 010°19'0 0.0
2018-Jan-20 02:28N 43°34' E 010°19'0 0.0
2018-Jan-20 01:55N 43°34' E 010°19'0 0.0
2018-Jan-20 01:28N 43°34' E 010°19'0 0.0
2018-Jan-20 00:55N 43°34' E 010°19'0 0.0
2018-Jan-20 00:28N 43°34' E 010°19'0 0.0
2018-Jan-19 23:58N 43°34' E 010°19'0 0.0
2018-Jan-19 23:25N 43°34' E 010°19'0 0.0
2018-Jan-19 22:58N 43°34' E 010°19'0 0.0
2018-Jan-19 22:28N 43°34' E 010°19'0 0.0
2018-Jan-19 21:58N 43°34' E 010°19'0 0.0
2018-Jan-19 21:28N 43°34' E 010°19'0 0.0
2018-Jan-19 20:58N 43°34' E 010°19'0 0.0
2018-Jan-19 20:28N 43°34' E 010°19'0 0.0
2018-Jan-19 19:55N 43°34' E 010°19'0 0.0
2018-Jan-19 19:28N 43°34' E 010°19'0 0.0
2018-Jan-19 18:58N 43°34' E 010°19'0 0.0
2018-Jan-19 18:25N 43°34' E 010°19'0 0.0
2018-Jan-19 17:58N 43°34' E 010°19'0 0.0
2018-Jan-19 17:25N 43°34' E 010°19'0 0.0
2018-Jan-19 16:55N 43°34' E 010°19'0 0.0
2018-Jan-19 16:28N 43°34' E 010°19'0 0.0
2018-Jan-19 15:52N 43°34' E 010°19'0 0.0
2018-Jan-19 15:28N 43°34' E 010°19'0 0.0
2018-Jan-19 14:55N 43°34' E 010°19'0 0.0
2018-Jan-19 14:28N 43°34' E 010°19'0 0.0
2018-Jan-19 13:58N 43°34' E 010°19'0 0.0
2018-Jan-19 13:28N 43°34' E 010°19'0 0.0
2018-Jan-19 12:58N 43°34' E 010°19'0 0.0
2018-Jan-19 12:28N 43°34' E 010°19'0 0.0
2018-Jan-19 11:58N 43°34' E 010°19'0 0.0
2018-Jan-19 11:22N 43°34' E 010°19'0 0.0
2018-Jan-19 10:58N 43°34' E 010°19'0 0.0
2018-Jan-19 10:19N 43°34' E 010°19'0 0.0
2018-Jan-19 09:58N 43°34' E 010°19'0 0.0
2018-Jan-19 09:28N 43°34' E 010°19'0 0.0
2018-Jan-19 08:58N 43°34' E 010°19'0 0.0
2018-Jan-19 08:28N 43°34' E 010°19'0 0.0
2018-Jan-19 07:58N 43°34' E 010°19'0 0.0
2018-Jan-19 07:28N 43°34' E 010°19'0 0.0
2018-Jan-19 06:58N 43°34' E 010°19'0 0.0
2018-Jan-19 06:28N 43°34' E 010°19'0 0.0
2018-Jan-19 05:58N 43°34' E 010°19'0 0.0
2018-Jan-19 05:28N 43°34' E 010°19'0 0.0
2018-Jan-19 04:58N 43°34' E 010°19'0 0.0
2018-Jan-19 04:28N 43°34' E 010°19'0 0.0
2018-Jan-19 03:58N 43°34' E 010°19'0 0.0
2018-Jan-19 03:28N 43°34' E 010°19'0 0.0
2018-Jan-19 02:55N 43°34' E 010°19'0 0.0
2018-Jan-19 02:28N 43°34' E 010°19'0 0.0
2018-Jan-19 01:58N 43°34' E 010°19'0 0.0
2018-Jan-19 01:28N 43°34' E 010°19'0 0.0
2018-Jan-19 00:58N 43°34' E 010°19'0 0.0
2018-Jan-19 00:28N 43°34' E 010°19'0 0.0
2018-Jan-18 23:58N 43°34' E 010°19'0 0.0
2018-Jan-18 23:25N 43°34' E 010°19'0 0.0
2018-Jan-18 22:58N 43°34' E 010°19'0 0.0
2018-Jan-18 22:28N 43°34' E 010°19'0 0.0
2018-Jan-18 21:58N 43°34' E 010°19'0 0.0
2018-Jan-18 21:28N 43°34' E 010°19'0 0.0
2018-Jan-18 20:58N 43°34' E 010°19'0 0.0
2018-Jan-18 20:25N 43°34' E 010°19'0 0.0
2018-Jan-18 19:58N 43°34' E 010°19'0 0.0
2018-Jan-18 19:28N 43°34' E 010°19'0 0.0
2018-Jan-18 18:58N 43°34' E 010°19'0 0.0
2018-Jan-18 18:28N 43°34' E 010°19'0 0.0
2018-Jan-18 17:55N 43°34' E 010°19'0 0.0
2018-Jan-18 17:28N 43°34' E 010°19'0 0.0
2018-Jan-18 16:58N 43°34' E 010°19'0 0.0
2018-Jan-18 16:28N 43°34' E 010°19'0 0.0
2018-Jan-18 15:58N 43°34' E 010°19'0 0.0
2018-Jan-18 15:28N 43°34' E 010°19'0 0.0
2018-Jan-18 14:58N 43°34' E 010°19'0 0.0
2018-Jan-18 14:28N 43°34' E 010°19'0 0.0
2018-Jan-18 13:58N 43°34' E 010°19'0 0.0
2018-Jan-18 13:28N 43°34' E 010°19'0 0.0
2018-Jan-18 12:58N 43°34' E 010°19'0 0.0
2018-Jan-18 12:28N 43°34' E 010°19'0 0.0
2018-Jan-18 11:58N 43°34' E 010°19'0 0.0
2018-Jan-18 11:28N 43°34' E 010°19'0 0.0
2018-Jan-18 10:55N 43°34' E 010°19'0 0.0
2018-Jan-18 10:28N 43°34' E 010°19'0 0.0
2018-Jan-18 09:58N 43°34' E 010°19'  
2018-Jan-12 12:53N 40°56' E 001°52'4 9.7
2018-Jan-12 12:29N 40°60' E 001°55'510.6
2018-Jan-12 11:58N 41°04' E 001°59'510.5
2018-Jan-12 11:30N 41°08' E 002°02'5 9.7
2018-Jan-12 11:01N 41°12' E 002°06'510.0
2018-Jan-12 10:31N 41°16' E 002°10'5 8.9
2018-Jan-12 10:00N 41°20' E 002°10'1 2.1
2018-Jan-12 09:28N 41°22' E 002°10'0 0.0
2018-Jan-12 08:55N 41°22' E 002°10'0 0.0
2018-Jan-12 08:28N 41°22' E 002°10'0 0.0
2018-Jan-12 07:58N 41°22' E 002°10'0 0.0
2018-Jan-12 07:28N 41°22' E 002°10'0 0.0
2018-Jan-12 06:58N 41°22' E 002°10'0 0.0
2018-Jan-12 06:28N 41°22' E 002°10'0 0.0
2018-Jan-12 05:55N 41°22' E 002°10'0 0.0
2018-Jan-12 05:28N 41°22' E 002°10'0 0.0
2018-Jan-12 04:58N 41°22' E 002°10'0 0.0
2018-Jan-12 04:28N 41°22' E 002°10'0 0.0
2018-Jan-12 03:58N 41°22' E 002°10'0 0.0
2018-Jan-12 03:28N 41°22' E 002°10'0 0.0
2018-Jan-12 02:58N 41°22' E 002°10'0 0.0
2018-Jan-12 02:28N 41°22' E 002°10'0 0.0
2018-Jan-12 01:58N 41°22' E 002°10'0 0.0
2018-Jan-12 01:28N 41°22' E 002°10'0 0.0
2018-Jan-12 00:58N 41°22' E 002°10'0 0.0
2018-Jan-12 00:28N 41°22' E 002°10'0 0.0
2018-Jan-11 23:58N 41°22' E 002°10'0 0.0
2018-Jan-11 23:28N 41°22' E 002°10'0 0.0
2018-Jan-11 22:58N 41°22' E 002°10'  
Track history (hours):
 
Tides and Currents Weather Stations Pressure Air Temp Water Temp Dewpoint Dewpoint Depression Visibility Wind Speed Wind Dir Waves Ship Positions

Atlantis Armona

Last reported at 2018-Jan-21 22:41 UTC. Time now 2018-Jan-22 04:37 UTC.
Position N 43°26' E 008°47'.

Length 92 m; draft 6.3 m.

Type: Tanker. MMSI: 248793000.

Date/timePositionNaut miles runAvg speedWind from/ knotsBaromVisibWave heightAir tempDewpointWater temp
2018-Jan-21 22:41N 43°26' E 008°47'2 9.3
2018-Jan-21 22:29N 43°27' E 008°49'5 9.7
2018-Jan-21 22:00N 43°27' E 008°56'5 9.7
2018-Jan-21 21:30N 43°28' E 009°02'5 9.6
2018-Jan-21 21:00N 43°29' E 009°09'5 9.7
2018-Jan-21 20:30N 43°30' E 009°15'5 9.6
2018-Jan-21 19:57N 43°30' E 009°23'4 9.6
2018-Jan-21 19:30N 43°31' E 009°28'510.0
2018-Jan-21 19:00N 43°31' E 009°35'5 9.7
2018-Jan-21 18:30N 43°31' E 009°42'5 9.7
2018-Jan-21 18:00N 43°31' E 009°49'4 8.8
2018-Jan-21 17:30N 43°31' E 009°55'4 8.6
2018-Jan-21 17:00N 43°31' E 010°00'4 8.9
2018-Jan-21 16:30N 43°31' E 010°07'5 9.4
2018-Jan-21 16:00N 43°31' E 010°13'4 8.0
2018-Jan-21 15:30N 43°34' E 010°18'1 2.4
2018-Jan-21 14:58N 43°34' E 010°19'0 0.0
2018-Jan-21 14:28N 43°34' E 010°19'0 0.0
2018-Jan-21 13:58N 43°34' E 010°19'0 0.0
2018-Jan-21 13:28N 43°34' E 010°19'0 0.0
2018-Jan-21 12:58N 43°34' E 010°19'0 0.0
2018-Jan-21 12:28N 43°34' E 010°19'0 0.0
2018-Jan-21 11:49N 43°34' E 010°19'0 0.0
2018-Jan-21 11:28N 43°34' E 010°19'0 0.0
2018-Jan-21 10:58N 43°34' E 010°19'0 0.0
2018-Jan-21 10:22N 43°34' E 010°19'0 0.0
2018-Jan-21 09:49N 43°34' E 010°19'0 0.0
2018-Jan-21 09:28N 43°34' E 010°19'0 0.0
2018-Jan-21 08:58N 43°34' E 010°19'0 0.0
2018-Jan-21 08:28N 43°34' E 010°19'0 0.0
2018-Jan-21 07:58N 43°34' E 010°19'0 0.0
2018-Jan-21 07:25N 43°34' E 010°19'0 0.0
2018-Jan-21 06:55N 43°34' E 010°19'0 0.0
2018-Jan-21 06:28N 43°34' E 010°19'0 0.0
2018-Jan-21 05:58N 43°34' E 010°19'0 0.0
2018-Jan-21 05:28N 43°34' E 010°19'0 0.0
2018-Jan-21 04:58N 43°34' E 010°19'0 0.0
2018-Jan-21 04:28N 43°34' E 010°19'0 0.0
2018-Jan-21 03:58N 43°34' E 010°19'0 0.0
2018-Jan-21 03:28N 43°34' E 010°19'0 0.0
2018-Jan-21 02:58N 43°34' E 010°19'0 0.0
2018-Jan-21 02:28N 43°34' E 010°19'0 0.0
2018-Jan-21 01:58N 43°34' E 010°19'0 0.0
2018-Jan-21 01:28N 43°34' E 010°19'0 0.0
2018-Jan-21 00:58N 43°34' E 010°19'0 0.0
2018-Jan-21 00:28N 43°34' E 010°19'0 0.0
2018-Jan-20 23:58N 43°34' E 010°19'0 0.0
2018-Jan-20 23:28N 43°34' E 010°19'0 0.0
2018-Jan-20 22:46N 43°34' E 010°19'0 0.0
2018-Jan-20 22:28N 43°34' E 010°19'0 0.0
2018-Jan-20 21:55N 43°34' E 010°19'0 0.0
2018-Jan-20 21:25N 43°34' E 010°19'0 0.0
2018-Jan-20 20:58N 43°34' E 010°19'0 0.0
2018-Jan-20 20:28N 43°34' E 010°19'0 0.0
2018-Jan-20 19:58N 43°34' E 010°19'0 0.0
2018-Jan-20 19:28N 43°34' E 010°19'0 0.0
2018-Jan-20 18:58N 43°34' E 010°19'0 0.0
2018-Jan-20 18:25N 43°34' E 010°19'0 0.0
2018-Jan-20 17:58N 43°34' E 010°19'0 0.0
2018-Jan-20 17:25N 43°34' E 010°19'0 0.0
2018-Jan-20 16:58N 43°34' E 010°19'0 0.0
2018-Jan-20 16:28N 43°34' E 010°19'0 0.0
2018-Jan-20 15:58N 43°34' E 010°19'0 0.0
2018-Jan-20 15:28N 43°34' E 010°19'0 0.0
2018-Jan-20 14:58N 43°34' E 010°19'0 0.0
2018-Jan-20 14:28N 43°34' E 010°19'0 0.0
2018-Jan-20 13:58N 43°34' E 010°19'0 0.0
2018-Jan-20 13:28N 43°34' E 010°19'0 0.0
2018-Jan-20 12:58N 43°34' E 010°19'0 0.0
2018-Jan-20 12:28N 43°34' E 010°19'0 0.0
2018-Jan-20 11:46N 43°34' E 010°19'0 0.0
2018-Jan-20 11:28N 43°34' E 010°19'0 0.0
2018-Jan-20 10:55N 43°34' E 010°19'0 0.0
2018-Jan-20 10:28N 43°34' E 010°19'0 0.0
2018-Jan-20 09:58N 43°34' E 010°19'0 0.0
2018-Jan-20 09:28N 43°34' E 010°19'0 0.0
2018-Jan-20 08:58N 43°34' E 010°19'0 0.0
2018-Jan-20 08:28N 43°34' E 010°19'0 0.0
2018-Jan-20 07:58N 43°34' E 010°19'0 0.0
2018-Jan-20 07:28N 43°34' E 010°19'0 0.0
2018-Jan-20 06:58N 43°34' E 010°19'0 0.0
2018-Jan-20 06:28N 43°34' E 010°19'0 0.0
2018-Jan-20 05:58N 43°34' E 010°19'0 0.0
2018-Jan-20 05:28N 43°34' E 010°19'0 0.0
2018-Jan-20 04:58N 43°34' E 010°19'0 0.0
2018-Jan-20 04:28N 43°34' E 010°19'0 0.0
2018-Jan-20 03:58N 43°34' E 010°19'0 0.0
2018-Jan-20 03:28N 43°34' E 010°19'0 0.0
2018-Jan-20 02:58N 43°34' E 010°19'0 0.0
2018-Jan-20 02:28N 43°34' E 010°19'0 0.0
2018-Jan-20 01:55N 43°34' E 010°19'0 0.0
2018-Jan-20 01:28N 43°34' E 010°19'0 0.0
2018-Jan-20 00:55N 43°34' E 010°19'0 0.0
2018-Jan-20 00:28N 43°34' E 010°19'0 0.0
2018-Jan-19 23:58N 43°34' E 010°19'0 0.0
2018-Jan-19 23:25N 43°34' E 010°19'0 0.0
2018-Jan-19 22:58N 43°34' E 010°19'0 0.0
2018-Jan-19 22:28N 43°34' E 010°19'0 0.0
2018-Jan-19 21:58N 43°34' E 010°19'0 0.0
2018-Jan-19 21:28N 43°34' E 010°19'0 0.0
2018-Jan-19 20:58N 43°34' E 010°19'0 0.0
2018-Jan-19 20:28N 43°34' E 010°19'0 0.0
2018-Jan-19 19:55N 43°34' E 010°19'0 0.0
2018-Jan-19 19:28N 43°34' E 010°19'0 0.0
2018-Jan-19 18:58N 43°34' E 010°19'0 0.0
2018-Jan-19 18:25N 43°34' E 010°19'0 0.0
2018-Jan-19 17:58N 43°34' E 010°19'0 0.0
2018-Jan-19 17:25N 43°34' E 010°19'0 0.0
2018-Jan-19 16:55N 43°34' E 010°19'0 0.0
2018-Jan-19 16:28N 43°34' E 010°19'0 0.0
2018-Jan-19 15:52N 43°34' E 010°19'0 0.0
2018-Jan-19 15:28N 43°34' E 010°19'0 0.0
2018-Jan-19 14:55N 43°34' E 010°19'0 0.0
2018-Jan-19 14:28N 43°34' E 010°19'0 0.0
2018-Jan-19 13:58N 43°34' E 010°19'0 0.0
2018-Jan-19 13:28N 43°34' E 010°19'0 0.0
2018-Jan-19 12:58N 43°34' E 010°19'0 0.0
2018-Jan-19 12:28N 43°34' E 010°19'0 0.0
2018-Jan-19 11:58N 43°34' E 010°19'0 0.0
2018-Jan-19 11:22N 43°34' E 010°19'0 0.0
2018-Jan-19 10:58N 43°34' E 010°19'0 0.0
2018-Jan-19 10:19N 43°34' E 010°19'0 0.0
2018-Jan-19 09:58N 43°34' E 010°19'0 0.0
2018-Jan-19 09:28N 43°34' E 010°19'0 0.0
2018-Jan-19 08:58N 43°34' E 010°19'0 0.0
2018-Jan-19 08:28N 43°34' E 010°19'0 0.0
2018-Jan-19 07:58N 43°34' E 010°19'0 0.0
2018-Jan-19 07:28N 43°34' E 010°19'0 0.0
2018-Jan-19 06:58N 43°34' E 010°19'0 0.0
2018-Jan-19 06:28N 43°34' E 010°19'0 0.0
2018-Jan-19 05:58N 43°34' E 010°19'0 0.0
2018-Jan-19 05:28N 43°34' E 010°19'0 0.0
2018-Jan-19 04:58N 43°34' E 010°19'0 0.0
2018-Jan-19 04:28N 43°34' E 010°19'0 0.0
2018-Jan-19 03:58N 43°34' E 010°19'0 0.0
2018-Jan-19 03:28N 43°34' E 010°19'0 0.0
2018-Jan-19 02:55N 43°34' E 010°19'0 0.0
2018-Jan-19 02:28N 43°34' E 010°19'0 0.0
2018-Jan-19 01:58N 43°34' E 010°19'0 0.0
2018-Jan-19 01:28N 43°34' E 010°19'0 0.0
2018-Jan-19 00:58N 43°34' E 010°19'0 0.0
2018-Jan-19 00:28N 43°34' E 010°19'0 0.0
2018-Jan-18 23:58N 43°34' E 010°19'0 0.0
2018-Jan-18 23:25N 43°34' E 010°19'0 0.0
2018-Jan-18 22:58N 43°34' E 010°19'0 0.0
2018-Jan-18 22:28N 43°34' E 010°19'0 0.0
2018-Jan-18 21:58N 43°34' E 010°19'0 0.0
2018-Jan-18 21:28N 43°34' E 010°19'0 0.0
2018-Jan-18 20:58N 43°34' E 010°19'0 0.0
2018-Jan-18 20:25N 43°34' E 010°19'0 0.0
2018-Jan-18 19:58N 43°34' E 010°19'0 0.0
2018-Jan-18 19:28N 43°34' E 010°19'0 0.0
2018-Jan-18 18:58N 43°34' E 010°19'0 0.0
2018-Jan-18 18:28N 43°34' E 010°19'0 0.0
2018-Jan-18 17:55N 43°34' E 010°19'0 0.0
2018-Jan-18 17:28N 43°34' E 010°19'0 0.0
2018-Jan-18 16:58N 43°34' E 010°19'0 0.0
2018-Jan-18 16:28N 43°34' E 010°19'0 0.0
2018-Jan-18 15:58N 43°34' E 010°19'0 0.0
2018-Jan-18 15:28N 43°34' E 010°19'0 0.0
2018-Jan-18 14:58N 43°34' E 010°19'0 0.0
2018-Jan-18 14:28N 43°34' E 010°19'0 0.0
2018-Jan-18 13:58N 43°34' E 010°19'0 0.0
2018-Jan-18 13:28N 43°34' E 010°19'0 0.0
2018-Jan-18 12:58N 43°34' E 010°19'0 0.0
2018-Jan-18 12:28N 43°34' E 010°19'0 0.0
2018-Jan-18 11:58N 43°34' E 010°19'0 0.0
2018-Jan-18 11:28N 43°34' E 010°19'0 0.0
2018-Jan-18 10:55N 43°34' E 010°19'0 0.0
2018-Jan-18 10:28N 43°34' E 010°19'0 0.0
2018-Jan-18 09:58N 43°34' E 010°19'  
2018-Jan-12 12:53N 40°56' E 001°52'4 9.7
2018-Jan-12 12:29N 40°60' E 001°55'510.6
2018-Jan-12 11:58N 41°04' E 001°59'510.5
2018-Jan-12 11:30N 41°08' E 002°02'5 9.7
2018-Jan-12 11:01N 41°12' E 002°06'510.0
2018-Jan-12 10:31N 41°16' E 002°10'5 8.9
2018-Jan-12 10:00N 41°20' E 002°10'1 2.1
2018-Jan-12 09:28N 41°22' E 002°10'0 0.0
2018-Jan-12 08:55N 41°22' E 002°10'0 0.0
2018-Jan-12 08:28N 41°22' E 002°10'0 0.0
2018-Jan-12 07:58N 41°22' E 002°10'0 0.0
2018-Jan-12 07:28N 41°22' E 002°10'0 0.0
2018-Jan-12 06:58N 41°22' E 002°10'0 0.0
2018-Jan-12 06:28N 41°22' E 002°10'0 0.0
2018-Jan-12 05:55N 41°22' E 002°10'0 0.0
2018-Jan-12 05:28N 41°22' E 002°10'0 0.0
2018-Jan-12 04:58N 41°22' E 002°10'0 0.0
2018-Jan-12 04:28N 41°22' E 002°10'0 0.0
2018-Jan-12 03:58N 41°22' E 002°10'0 0.0
2018-Jan-12 03:28N 41°22' E 002°10'0 0.0
2018-Jan-12 02:58N 41°22' E 002°10'0 0.0
2018-Jan-12 02:28N 41°22' E 002°10'0 0.0
2018-Jan-12 01:58N 41°22' E 002°10'0 0.0
2018-Jan-12 01:28N 41°22' E 002°10'0 0.0
2018-Jan-12 00:58N 41°22' E 002°10'0 0.0
2018-Jan-12 00:28N 41°22' E 002°10'0 0.0
2018-Jan-11 23:58N 41°22' E 002°10'0 0.0
2018-Jan-11 23:28N 41°22' E 002°10'0 0.0
2018-Jan-11 22:58N 41°22' E 002°10'  

Dump ship's entire track history